Time;durP1;ratioP1;P1;durP2;ratioP2;P2;SDS_P1;SDS_P2;PMS_P1;PMS_P2;Temp;Humidity;BMP_temperature;BMP_pressure;BME280_temperature;BME280_humidity;BME280_pressure;Samples;Min_cycle;Max_cycle;Signal;HPM_P1;HPM_P2
2021/03/17 00:02:31;;;;;;;41.13;23.10;;;;;4.80;101856.00;;;;10342539;28;21058;-76
2021/03/17 00:07:51;;;;;;;45.60;24.40;;;;;4.80;101877.00;;;;10359314;28;20199;-76
2021/03/17 00:13:12;;;;;;;50.50;26.27;;;;;4.90;101891.00;;;;10358682;28;20313;-76
2021/03/17 00:18:32;;;;;;;49.10;26.20;;;;;4.90;101902.00;;;;10325053;28;20199;-76
2021/03/17 00:23:52;;;;;;;55.23;28.03;;;;;4.90;101910.00;;;;10342234;28;20346;-76
2021/03/17 00:29:11;;;;;;;56.57;30.30;;;;;4.90;101909.00;;;;10342162;28;20192;-76
2021/03/17 00:34:31;;;;;;;58.00;31.47;;;;;4.90;101917.00;;;;10317932;28;20188;-76
2021/03/17 00:39:51;;;;;;;58.13;30.40;;;;;4.90;101936.00;;;;10317387;28;20204;-76
2021/03/17 00:45:11;;;;;;;60.10;30.37;;;;;5.00;101951.00;;;;10337425;28;20242;-76
2021/03/17 00:50:31;;;;;;;61.77;30.33;;;;;4.90;101961.00;;;;10358315;28;20282;-75
2021/03/17 00:55:33;;;;;;;67.13;33.10;;;;;4.90;101971.00;;;;10354614;28;20195;-76
2021/03/17 01:00:53;;;;;;;62.27;34.10;;;;;4.90;101976.00;;;;10357091;28;20231;-77
2021/03/17 01:05:56;;;;;;;67.90;35.43;;;;;4.90;101980.00;;;;10338771;28;20191;-77
2021/03/17 01:10:58;;;;;;;71.37;35.37;;;;;4.90;101982.00;;;;10354415;28;20199;-77
2021/03/17 01:16:01;;;;;;;76.60;38.10;;;;;4.90;101990.00;;;;10337710;28;20693;-77
2021/03/17 01:21:03;;;;;;;64.77;34.60;;;;;4.90;101999.00;;;;10322128;28;20207;-77
2021/03/17 01:26:04;;;;;;;70.17;36.07;;;;;4.80;102015.00;;;;10337322;28;20227;-77
2021/03/17 01:31:06;;;;;;;70.60;38.27;;;;;4.80;102019.00;;;;10310657;28;20188;-77
2021/03/17 01:36:07;;;;;;;75.60;40.87;;;;;4.80;102033.00;;;;10339782;28;20196;-77
2021/03/17 01:41:09;;;;;;;79.83;42.23;;;;;4.80;102035.00;;;;10321550;28;20619;-76
2021/03/17 01:46:10;;;;;;;77.33;41.87;;;;;4.80;102052.00;;;;10328738;28;20528;-77
2021/03/17 01:51:12;;;;;;;80.57;44.13;;;;;4.80;102063.00;;;;10342527;28;20188;-77
2021/03/17 01:56:15;;;;;;;79.80;43.53;;;;;4.70;102077.00;;;;10346231;28;20215;-77
2021/03/17 02:01:16;;;;;;;75.00;40.47;;;;;4.70;102089.00;;;;10324863;28;20635;-76
2021/03/17 02:06:20;;;;;;;61.97;34.60;;;;;4.70;102096.00;;;;10359896;28;20195;-77
2021/03/17 02:11:21;;;;;;;60.30;35.77;;;;;4.70;102119.00;;;;10328839;28;20219;-76
2021/03/17 02:16:30;;;;;;;55.57;32.30;;;;;4.70;102140.00;;;;10345382;28;20211;-76
2021/03/17 02:21:41;;;;;;;45.80;28.60;;;;;4.60;102148.00;;;;10328378;28;20219;-76
2021/03/17 02:27:05;;;;;;;43.17;26.40;;;;;4.60;102144.00;;;;10344320;28;20195;-77
2021/03/17 02:32:27;;;;;;;39.90;26.90;;;;;4.50;102142.00;;;;10359719;28;20203;-76
2021/03/17 02:37:29;;;;;;;42.43;27.03;;;;;4.50;102135.00;;;;10359949;28;20195;-76
2021/03/17 02:42:41;;;;;;;40.30;26.83;;;;;4.50;102134.00;;;;10358553;28;20666;-77
2021/03/17 02:48:11;;;;;;;41.87;26.50;;;;;4.50;102127.00;;;;10327099;28;20207;-77
2021/03/17 02:53:15;;;;;;;42.10;25.60;;;;;4.50;102132.00;;;;10359652;28;20191;-77
2021/03/17 02:58:17;;;;;;;40.07;26.73;;;;;4.50;102120.00;;;;10342999;28;20223;-77
2021/03/17 03:03:20;;;;;;;43.70;26.57;;;;;4.40;102129.00;;;;10327305;28;20282;-77
2021/03/17 03:08:27;;;;;;;40.30;24.50;;;;;4.40;102127.00;;;;10331781;28;20189;-77
2021/03/17 03:13:28;;;;;;;41.97;25.77;;;;;4.40;102117.00;;;;10302087;28;20278;-77
2021/03/17 03:18:51;;;;;;;44.30;27.10;;;;;4.40;102112.00;;;;10301688;28;20223;-77
2021/03/17 03:23:54;;;;;;;46.40;26.77;;;;;4.30;102118.00;;;;10336584;28;20215;-77
2021/03/17 03:28:56;;;;;;;45.77;25.77;;;;;4.30;102122.00;;;;10353133;28;20554;-77
2021/03/17 03:33:57;;;;;;;47.10;27.73;;;;;4.20;102113.00;;;;10357971;28;20287;-77
2021/03/17 03:39:00;;;;;;;48.73;28.83;;;;;4.30;102125.00;;;;10320342;28;20204;-77
2021/03/17 03:44:03;;;;;;;56.47;30.93;;;;;4.30;102134.00;;;;10300877;28;20236;-77
2021/03/17 03:49:07;;;;;;;57.40;30.90;;;;;4.30;102127.00;;;;10317127;28;20216;-77
2021/03/17 03:54:15;;;;;;;63.00;32.20;;;;;4.30;102120.00;;;;10306299;28;20192;-77
2021/03/17 03:59:27;;;;;;;55.87;30.97;;;;;4.30;102101.00;;;;10357379;28;20274;-77
2021/03/17 04:04:32;;;;;;;59.97;32.97;;;;;4.40;102097.00;;;;10318615;28;21009;-77
2021/03/17 04:09:49;;;;;;;59.40;33.73;;;;;4.40;102088.00;;;;10316549;28;20295;-77
2021/03/17 04:14:55;;;;;;;61.43;33.00;;;;;4.40;102088.00;;;;10315678;28;20262;-77
2021/03/17 04:20:05;;;;;;;64.57;32.97;;;;;4.30;102098.00;;;;10315679;28;20702;-77
2021/03/17 04:25:09;;;;;;;60.80;32.63;;;;;4.40;102107.00;;;;10313933;28;20291;-77
2021/03/17 04:30:12;;;;;;;61.77;32.77;;;;;4.40;102112.00;;;;10305143;28;20196;-77
2021/03/17 04:35:16;;;;;;;67.67;34.47;;;;;4.40;102114.00;;;;10299275;28;20592;-77
2021/03/17 04:40:17;;;;;;;62.93;33.17;;;;;4.40;102121.00;;;;10315077;28;20200;-77
2021/03/17 04:45:19;;;;;;;72.23;35.47;;;;;4.50;102117.00;;;;10307854;28;20696;-77
2021/03/17 04:50:24;;;;;;;63.23;33.97;;;;;4.50;102115.00;;;;10306470;28;20257;-77
2021/03/17 04:55:26;;;;;;;69.10;35.13;;;;;4.50;102111.00;;;;10299711;28;20191;-77
2021/03/17 05:00:28;;;;;;;67.90;33.57;;;;;4.50;102102.00;;;;10355196;28;20192;-77
2021/03/17 05:05:32;;;;;;;65.83;33.10;;;;;4.50;102109.00;;;;10306049;28;20615;-77
2021/03/17 05:10:36;;;;;;;65.57;33.30;;;;;4.50;102115.00;;;;10355095;28;20195;-77
2021/03/17 05:15:39;;;;;;;55.93;29.33;;;;;4.60;102110.00;;;;10337613;28;20694;-77
2021/03/17 05:20:43;;;;;;;55.30;29.67;;;;;4.60;102112.00;;;;10338936;28;20192;-77
2021/03/17 05:25:46;;;;;;;50.40;29.20;;;;;4.60;102110.00;;;;10355093;28;20235;-77
2021/03/17 05:30:51;;;;;;;52.97;29.87;;;;;4.60;102116.00;;;;10338313;28;20223;-77
2021/03/17 05:35:53;;;;;;;56.43;29.63;;;;;4.70;102113.00;;;;10334012;28;20238;-77
2021/03/17 05:40:56;;;;;;;42.60;24.30;;;;;4.70;102130.00;;;;10370619;28;20208;-77
2021/03/17 05:45:58;;;;;;;41.93;23.27;;;;;4.70;102140.00;;;;10321657;28;20670;-77
2021/03/17 05:51:01;;;;;;;38.60;23.67;;;;;4.70;102139.00;;;;10329704;28;20188;-76
2021/03/17 05:56:03;;;;;;;45.30;26.17;;;;;4.80;102138.00;;;;10309379;28;20608;-76
2021/03/17 06:01:04;;;;;;;42.20;22.80;;;;;4.80;102143.00;;;;10334265;28;20563;-77
2021/03/17 06:06:07;;;;;;;36.43;21.03;;;;;4.90;102140.00;;;;10352745;28;20850;-76
2021/03/17 06:11:11;;;;;;;36.20;20.40;;;;;4.90;102143.00;;;;10353319;28;20211;-77
2021/03/17 06:16:15;;;;;;;36.47;21.60;;;;;5.00;102143.00;;;;10342062;28;20290;-77
2021/03/17 06:21:18;;;;;;;31.70;18.70;;;;;5.00;102145.00;;;;10328473;28;20666;-77
2021/03/17 06:26:20;;;;;;;33.23;19.00;;;;;5.10;102128.00;;;;10344224;28;20546;-77
2021/03/17 06:31:21;;;;;;;32.20;16.60;;;;;5.10;102131.00;;;;10316728;28;20223;-77
2021/03/17 06:36:25;;;;;;;33.13;18.50;;;;;5.20;102118.00;;;;10318210;28;20246;-77
2021/03/17 06:41:41;;;;;;;26.57;18.47;;;;;5.40;102110.00;;;;10327584;28;20594;-77
2021/03/17 06:46:42;;;;;;;27.67;18.97;;;;;5.50;102131.00;;;;10358309;28;20577;-77
2021/03/17 06:51:44;;;;;;;37.07;19.20;;;;;5.60;102133.00;;;;10319161;28;20271;-77
2021/03/17 06:56:46;;;;;;;28.47;15.83;;;;;5.80;102119.00;;;;10303490;28;20267;-77
2021/03/17 07:01:49;;;;;;;26.53;14.40;;;;;6.00;102125.00;;;;10367048;28;20212;-77
2021/03/17 07:07:02;;;;;;;22.37;13.77;;;;;6.20;102117.00;;;;10386274;28;20237;-77
2021/03/17 07:12:09;;;;;;;20.87;11.77;;;;;6.30;102126.00;;;;10383849;28;20187;-77
2021/03/17 07:17:27;;;;;;;18.70;11.20;;;;;6.60;102135.00;;;;10358479;28;20211;-77
2021/03/17 07:22:29;;;;;;;18.67;9.37;;;;;6.70;102132.00;;;;10325220;28;20216;-77
2021/03/17 07:27:32;;;;;;;15.03;9.07;;;;;6.80;102145.00;;;;10339648;28;20247;-77
2021/03/17 07:32:53;;;;;;;18.80;7.40;;;;;6.80;102155.00;;;;10317525;28;20222;-77
2021/03/17 07:38:14;;;;;;;16.67;7.07;;;;;6.80;102160.00;;;;10340794;28;20278;-77
2021/03/17 07:43:17;;;;;;;19.40;7.33;;;;;6.70;102161.00;;;;10357498;28;20215;-77
2021/03/17 07:48:20;;;;;;;15.73;6.30;;;;;6.50;102160.00;;;;10341990;28;20195;-77
2021/03/17 07:53:26;;;;;;;20.10;6.83;;;;;6.40;102164.00;;;;10341354;28;20524;-77
2021/03/17 07:58:30;;;;;;;18.30;6.33;;;;;6.40;102169.00;;;;10341781;28;20207;-77
2021/03/17 08:03:31;;;;;;;13.23;5.33;;;;;6.30;102183.00;;;;10357659;28;20203;-78
2021/03/17 08:08:34;;;;;;;13.00;5.10;;;;;6.30;102185.00;;;;10325246;28;20304;-77
2021/03/17 08:13:35;;;;;;;24.43;6.73;;;;;6.30;102195.00;;;;10311984;28;20216;-77
2021/03/17 08:18:43;;;;;;;18.10;7.03;;;;;6.40;102198.00;;;;10269925;28;20196;-77
2021/03/17 08:23:48;;;;;;;18.73;6.27;;;;;6.50;102202.00;;;;10300079;28;20216;-77
2021/03/17 08:28:55;;;;;;;15.03;5.97;;;;;6.50;102201.00;;;;10327114;28;20218;-77
2021/03/17 08:33:56;;;;;;;17.03;5.17;;;;;6.80;102199.00;;;;10349955;28;20721;-77
2021/03/17 08:38:59;;;;;;;17.30;5.90;;;;;7.10;102200.00;;;;10323214;28;20203;-77
2021/03/17 08:44:22;;;;;;;11.03;5.67;;;;;7.10;102200.00;;;;10340319;28;20310;-77
2021/03/17 08:49:32;;;;;;;16.93;6.90;;;;;7.90;102223.00;;;;10322783;28;20196;-77
2021/03/17 08:54:35;;;;;;;13.20;6.33;;;;;7.90;102234.00;;;;10292034;28;20537;-77
2021/03/17 08:59:49;;;;;;;8.17;4.53;;;;;7.70;102239.00;;;;10314929;28;20264;-77
2021/03/17 09:05:16;;;;;;;9.87;3.37;;;;;7.90;102262.00;;;;10282498;28;20212;-77
2021/03/17 09:10:17;;;;;;;5.93;3.40;;;;;8.00;102251.00;;;;10298384;28;20204;-77
2021/03/17 09:15:20;;;;;;;5.93;3.63;;;;;7.60;102267.00;;;;10343385;28;20595;-77
2021/03/17 09:20:45;;;;;;;8.30;3.50;;;;;7.20;102262.00;;;;10351812;28;20207;-77
2021/03/17 09:25:52;;;;;;;5.93;2.90;;;;;6.90;102254.00;;;;10323606;28;20333;-77
2021/03/17 09:30:53;;;;;;;3.57;2.60;;;;;6.70;102250.00;;;;10335494;28;20192;-77
2021/03/17 09:36:07;;;;;;;5.77;2.60;;;;;6.70;102265.00;;;;10350267;28;20655;-77
2021/03/17 09:41:15;;;;;;;3.60;2.90;;;;;6.80;102255.00;;;;10321649;28;20218;-78
2021/03/17 09:46:37;;;;;;;5.90;2.90;;;;;6.80;102250.00;;;;10325106;28;20208;-77
2021/03/17 09:51:51;;;;;;;6.00;2.50;;;;;7.20;102234.00;;;;10348931;28;20203;-78
2021/03/17 09:56:58;;;;;;;5.63;2.77;;;;;7.50;102243.00;;;;10329828;28;20199;-77
2021/03/17 10:02:16;;;;;;;8.13;3.40;;;;;8.30;102247.00;;;;10316993;28;20231;-77
2021/03/17 10:07:22;;;;;;;6.63;2.80;;;;;8.70;102257.00;;;;10334898;28;20206;-77
2021/03/17 10:12:25;;;;;;;2.73;1.93;;;;;8.10;102243.00;;;;10337268;28;20275;-77
2021/03/17 10:17:29;;;;;;;2.93;2.20;;;;;7.70;102244.00;;;;10378538;28;20250;-77
2021/03/17 10:22:32;;;;;;;3.20;2.60;;;;;7.80;102248.00;;;;10342726;28;20736;-77
2021/03/17 10:27:41;;;;;;;3.60;3.30;;;;;7.60;102251.00;;;;10356300;28;20306;-77
2021/03/17 10:32:47;;;;;;;4.20;3.80;;;;;8.20;102249.00;;;;10344653;28;20215;-77
2021/03/17 10:37:50;;;;;;;4.00;3.63;;;;;9.20;102236.00;;;;10320656;28;20195;-77
2021/03/17 10:42:56;;;;;;;5.87;3.53;;;;;8.90;102242.00;;;;10332191;28;20215;-77
2021/03/17 10:47:58;;;;;;;6.07;3.20;;;;;8.60;102244.00;;;;10359959;28;20189;-77
2021/03/17 10:53:15;;;;;;;3.50;3.20;;;;;8.10;102233.00;;;;10333268;28;20192;-77
2021/03/17 10:58:25;;;;;;;3.37;3.07;;;;;7.60;102241.00;;;;10361145;28;20202;-77
2021/03/17 11:03:27;;;;;;;4.30;3.50;;;;;7.40;102251.00;;;;10334628;28;20211;-77
2021/03/17 11:08:30;;;;;;;3.80;3.50;;;;;7.70;102241.00;;;;10342758;28;20227;-77
2021/03/17 11:13:32;;;;;;;5.00;3.57;;;;;7.70;102249.00;;;;10361202;28;20231;-77
2021/03/17 11:18:35;;;;;;;2.47;2.27;;;;;8.00;102231.00;;;;10359445;28;20203;-77
2021/03/17 11:23:39;;;;;;;5.00;3.17;;;;;8.00;102231.00;;;;10329090;28;20235;-77
2021/03/17 11:28:41;;;;;;;3.37;2.17;;;;;7.70;102235.00;;;;10345994;28;20200;-77
2021/03/17 11:33:42;;;;;;;4.10;2.60;;;;;7.80;102239.00;;;;10321787;28;20192;-77
2021/03/17 11:38:44;;;;;;;5.40;3.23;;;;;7.70;102246.00;;;;10375529;28;20690;-76
2021/03/17 11:43:46;;;;;;;5.90;3.37;;;;;7.30;102253.00;;;;10341289;28;20207;-76
2021/03/17 11:48:47;;;;;;;3.47;3.17;;;;;7.00;102234.00;;;;10379735;28;20202;-76
2021/03/17 11:53:49;;;;;;;4.97;3.03;;;;;7.50;102229.00;;;;10360945;28;20202;-76
2021/03/17 11:58:51;;;;;;;6.87;3.37;;;;;8.00;102232.00;;;;10357595;28;20207;-76
2021/03/17 12:03:53;;;;;;;3.63;3.33;;;;;8.40;102222.00;;;;10325061;28;20204;-76
2021/03/17 12:08:54;;;;;;;3.53;2.30;;;;;8.20;102225.00;;;;10374838;28;20278;-77
2021/03/17 12:13:56;;;;;;;7.03;3.00;;;;;7.50;102227.00;;;;10339692;28;20223;-76
2021/03/17 12:18:58;;;;;;;2.67;2.30;;;;;7.40;102238.00;;;;10315442;28;20200;-76
2021/03/17 12:23:59;;;;;;;3.00;2.40;;;;;7.60;102226.00;;;;10356893;28;20306;-77
2021/03/17 12:29:03;;;;;;;2.23;1.90;;;;;7.70;102236.00;;;;10316575;28;20200;-76
2021/03/17 12:34:04;;;;;;;3.03;2.13;;;;;7.80;102230.00;;;;10296022;28;20217;-76
2021/03/17 12:39:06;;;;;;;5.13;2.20;;;;;7.80;102230.00;;;;10340247;28;20592;-76
2021/03/17 12:44:08;;;;;;;7.47;2.23;;;;;7.40;102228.00;;;;10339659;28;20207;-76
2021/03/17 12:49:10;;;;;;;5.83;2.60;;;;;7.30;102224.00;;;;10356523;28;20195;-76
2021/03/17 12:54:11;;;;;;;4.50;3.00;;;;;7.20;102227.00;;;;10341687;28;20222;-77
2021/03/17 12:59:13;;;;;;;6.50;3.10;;;;;7.70;102212.00;;;;10360348;28;20218;-77
2021/03/17 13:04:15;;;;;;;3.63;2.80;;;;;7.90;102213.00;;;;10355571;28;20224;-76
2021/03/17 13:09:17;;;;;;;6.87;3.43;;;;;8.30;102204.00;;;;10357761;28;20195;-77
2021/03/17 13:14:19;;;;;;;6.23;3.40;;;;;9.10;102203.00;;;;10347835;28;20226;-79
2021/03/17 13:19:20;;;;;;;3.07;2.17;;;;;8.40;102214.00;;;;10355100;28;20192;-76
2021/03/17 13:24:22;;;;;;;5.93;1.90;;;;;7.90;102211.00;;;;10320275;28;20207;-76
2021/03/17 13:29:23;;;;;;;5.07;2.43;;;;;8.00;102204.00;;;;10358479;28;20199;-76
2021/03/17 13:34:25;;;;;;;2.17;1.83;;;;;9.00;102199.00;;;;10371760;28;20246;-76
2021/03/17 13:39:26;;;;;;;4.20;1.87;;;;;10.90;102184.00;;;;10336821;28;20241;-76
2021/03/17 13:44:28;;;;;;;5.37;1.90;;;;;11.40;102177.00;;;;10390045;28;20202;-76
2021/03/17 13:49:29;;;;;;;2.67;1.70;;;;;11.10;102177.00;;;;10339744;28;20219;-76
2021/03/17 13:54:30;;;;;;;3.90;2.03;;;;;10.90;102171.00;;;;10383674;28;20195;-76
2021/03/17 13:59:32;;;;;;;4.33;1.87;;;;;10.70;102177.00;;;;10351764;28;20241;-76
2021/03/17 14:04:33;;;;;;;2.60;1.63;;;;;10.50;102178.00;;;;10323050;28;20289;-76
2021/03/17 14:09:35;;;;;;;6.03;1.97;;;;;10.60;102168.00;;;;10305080;28;20213;-76
2021/03/17 14:14:36;;;;;;;3.90;2.00;;;;;11.30;102152.00;;;;10336331;28;20685;-76
2021/03/17 14:19:40;;;;;;;3.73;2.27;;;;;11.40;102153.00;;;;10353329;28;20250;-76
2021/03/17 14:24:42;;;;;;;6.77;3.33;;;;;12.30;102151.00;;;;10368804;28;20208;-76
2021/03/17 14:29:43;;;;;;;8.13;2.60;;;;;11.90;102153.00;;;;10335540;28;20199;-75
2021/03/17 14:34:46;;;;;;;4.37;2.13;;;;;11.80;102139.00;;;;10337434;28;20212;-76
2021/03/17 14:39:48;;;;;;;5.70;2.27;;;;;11.50;102138.00;;;;10343898;28;20195;-76
2021/03/17 14:44:51;;;;;;;9.87;2.30;;;;;12.30;102114.00;;;;10359513;28;20329;-76
2021/03/17 14:49:52;;;;;;;8.70;2.10;;;;;11.80;102134.00;;;;10356913;28;20199;-76
2021/03/17 14:54:54;;;;;;;6.50;1.70;;;;;11.60;102114.00;;;;10334008;28;20199;-76
2021/03/17 14:59:56;;;;;;;3.03;1.13;;;;;11.00;102111.00;;;;10371936;28;20596;-76
2021/03/17 15:04:58;;;;;;;2.63;1.60;;;;;10.70;102110.00;;;;10356327;28;20236;-76
2021/03/17 15:09:59;;;;;;;5.07;1.87;;;;;11.00;102114.00;;;;10326447;28;20199;-76
2021/03/17 15:15:05;;;;;;;6.43;2.23;;;;;10.40;102119.00;;;;10350875;28;20251;-75
2021/03/17 15:20:09;;;;;;;8.63;2.30;;;;;9.50;102134.00;;;;10371916;28;20192;-76
2021/03/17 15:25:11;;;;;;;9.30;2.50;;;;;8.50;102153.00;;;;10346537;28;20212;-76
2021/03/17 15:30:13;;;;;;;8.17;2.93;;;;;8.20;102149.00;;;;10352478;28;20204;-77
2021/03/17 15:35:15;;;;;;;7.77;2.70;;;;;8.90;102143.00;;;;10334977;28;20263;-77
2021/03/17 15:40:17;;;;;;;7.67;2.43;;;;;10.70;102131.00;;;;10361694;28;20191;-77
2021/03/17 15:45:20;;;;;;;7.20;2.67;;;;;11.90;102143.00;;;;10354373;28;20251;-76
2021/03/17 15:50:24;;;;;;;4.80;2.20;;;;;11.70;102118.00;;;;10320495;28;20191;-77
2021/03/17 15:55:26;;;;;;;7.90;1.90;;;;;10.90;102136.00;;;;10325545;28;20210;-76
2021/03/17 16:00:30;;;;;;;5.33;1.80;;;;;10.60;102146.00;;;;10334770;28;20222;-76
2021/03/17 16:05:32;;;;;;;4.70;1.60;;;;;11.50;102132.00;;;;10338599;28;20210;-76
2021/03/17 16:10:33;;;;;;;6.97;1.47;;;;;11.00;102133.00;;;;10340028;28;20194;-76
2021/03/17 16:15:35;;;;;;;8.10;2.53;;;;;11.20;102126.00;;;;10321551;28;20252;-76
2021/03/17 16:20:37;;;;;;;6.80;2.23;;;;;10.40;102132.00;;;;10353008;28;20197;-76
2021/03/17 16:25:39;;;;;;;4.07;2.10;;;;;10.10;102126.00;;;;10343890;28;20235;-76
2021/03/17 16:30:41;;;;;;;7.43;2.10;;;;;10.00;102127.00;;;;10322539;28;20203;-76
2021/03/17 16:35:43;;;;;;;4.07;1.83;;;;;9.50;102135.00;;;;10337663;28;20612;-76
2021/03/17 16:40:45;;;;;;;5.07;1.60;;;;;8.70;102160.00;;;;10359964;28;20500;-77
2021/03/17 16:45:46;;;;;;;6.03;1.53;;;;;8.00;102177.00;;;;10347091;28;20258;-77
2021/03/17 16:50:47;;;;;;;6.20;1.83;;;;;7.60;102179.00;;;;10330819;28;20863;-77
2021/03/17 16:55:49;;;;;;;6.80;2.27;;;;;7.40;102191.00;;;;10345822;28;20349;-77
2021/03/17 17:00:50;;;;;;;6.83;1.93;;;;;7.50;102183.00;;;;10344464;28;20637;-76
2021/03/17 17:05:53;;;;;;;8.47;2.07;;;;;7.40;102196.00;;;;10342879;28;20226;-75
2021/03/17 17:10:54;;;;;;;5.60;1.80;;;;;7.50;102206.00;;;;10333923;28;20227;-75
2021/03/17 17:15:55;;;;;;;8.13;2.30;;;;;7.40;102208.00;;;;10344346;28;20212;-75
2021/03/17 17:20:57;;;;;;;6.27;3.07;;;;;7.20;102217.00;;;;10344240;28;20226;-77
2021/03/17 17:25:59;;;;;;;5.00;2.47;;;;;7.10;102220.00;;;;10342722;28;20231;-77
2021/03/17 17:31:02;;;;;;;8.37;3.30;;;;;6.90;102223.00;;;;10344358;28;20203;-77
2021/03/17 17:36:03;;;;;;;12.43;7.17;;;;;6.90;102241.00;;;;10360020;28;20184;-77
2021/03/17 17:41:05;;;;;;;7.97;3.30;;;;;6.70;102269.00;;;;10333351;28;20230;-77
2021/03/17 17:46:07;;;;;;;9.40;3.33;;;;;6.30;102266.00;;;;10312220;28;20331;-77
2021/03/17 17:51:08;;;;;;;11.43;4.70;;;;;6.10;102261.00;;;;10303055;28;20254;-77
2021/03/17 17:56:09;;;;;;;12.43;2.20;;;;;6.00;102265.00;;;;10348694;28;20238;-77
2021/03/17 18:01:11;;;;;;;14.27;7.27;;;;;5.70;102274.00;;;;10319463;28;20192;-77
2021/03/17 18:06:16;;;;;;;10.10;3.43;;;;;5.70;102273.00;;;;10365003;28;20215;-77
2021/03/17 18:11:17;;;;;;;15.87;7.40;;;;;5.80;102278.00;;;;10315181;28;20199;-77
2021/03/17 18:16:18;;;;;;;8.43;5.33;;;;;5.90;102289.00;;;;10343170;28;20277;-77
2021/03/17 18:21:20;;;;;;;8.87;5.33;;;;;5.90;102278.00;;;;10326926;28;20218;-77
2021/03/17 18:26:21;;;;;;;10.63;3.37;;;;;6.00;102282.00;;;;10325271;28;20196;-77
2021/03/17 18:31:22;;;;;;;7.57;2.77;;;;;6.00;102264.00;;;;10322620;28;20200;-77
2021/03/17 18:36:24;;;;;;;9.00;2.67;;;;;5.90;102241.00;;;;10375040;28;20183;-77
2021/03/17 18:41:25;;;;;;;11.53;3.03;;;;;5.90;102243.00;;;;10361518;28;20187;-77
2021/03/17 18:46:27;;;;;;;7.93;3.30;;;;;5.80;102238.00;;;;10349170;28;20231;-77
2021/03/17 18:51:28;;;;;;;11.20;3.37;;;;;5.90;102235.00;;;;10363228;28;20203;-76
2021/03/17 18:56:32;;;;;;;10.40;4.57;;;;;5.80;102257.00;;;;10316046;28;20195;-76
2021/03/17 19:01:33;;;;;;;20.10;6.87;;;;;5.80;102249.00;;;;10353031;28;20202;-76
2021/03/17 19:06:35;;;;;;;13.67;8.97;;;;;5.70;102248.00;;;;10363474;28;20191;-77
2021/03/17 19:11:37;;;;;;;16.70;5.83;;;;;5.60;102271.00;;;;10331816;28;20192;-76
2021/03/17 19:16:38;;;;;;;10.13;5.87;;;;;5.60;102273.00;;;;10300177;28;20234;-76
2021/03/17 19:21:40;;;;;;;9.97;4.27;;;;;5.60;102269.00;;;;10340519;28;20199;-77
2021/03/17 19:26:41;;;;;;;18.77;10.43;;;;;5.60;102268.00;;;;10318220;28;20285;-76
2021/03/17 19:31:45;;;;;;;19.60;13.43;;;;;5.70;102269.00;;;;10384452;28;20249;-76
2021/03/17 19:36:46;;;;;;;18.47;9.33;;;;;5.70;102282.00;;;;10364892;28;20198;-76
2021/03/17 19:41:54;;;;;;;13.40;7.03;;;;;5.80;102288.00;;;;10396787;28;20572;-76
2021/03/17 19:46:57;;;;;;;13.80;8.90;;;;;5.80;102284.00;;;;10372266;28;20195;-77
2021/03/17 19:52:01;;;;;;;15.53;6.60;;;;;5.80;102304.00;;;;10404934;28;20286;-77
2021/03/17 19:57:12;;;;;;;11.50;7.10;;;;;5.90;102308.00;;;;10415760;28;20193;-77
2021/03/17 20:02:36;;;;;;;10.53;5.07;;;;;5.90;102319.00;;;;10379963;28;20215;-76
2021/03/17 20:07:47;;;;;;;20.30;8.90;;;;;5.90;102320.00;;;;10365015;28;20219;-77
2021/03/17 20:12:48;;;;;;;14.53;7.50;;;;;5.90;102323.00;;;;10398994;28;20317;-77
2021/03/17 20:18:08;;;;;;;11.70;6.73;;;;;5.90;102332.00;;;;10359700;28;20912;-77
2021/03/17 20:23:28;;;;;;;15.13;5.67;;;;;6.00;102333.00;;;;10384296;28;20209;-76
2021/03/17 20:28:30;;;;;;;15.10;4.73;;;;;6.00;102330.00;;;;10415348;28;20202;-77
2021/03/17 20:33:51;;;;;;;12.87;4.57;;;;;6.00;102332.00;;;;10411141;28;20225;-76
2021/03/17 20:38:53;;;;;;;14.07;5.07;;;;;6.00;102333.00;;;;10392841;28;20203;-76
2021/03/17 20:43:58;;;;;;;18.83;8.63;;;;;6.00;102341.00;;;;10357293;28;20329;-76
2021/03/17 20:49:01;;;;;;;8.93;6.83;;;;;6.00;102336.00;;;;10372775;28;20199;-76
2021/03/17 20:54:03;;;;;;;14.73;5.67;;;;;6.00;102337.00;;;;10404307;28;20223;-76
2021/03/17 20:59:15;;;;;;;11.27;4.90;;;;;6.00;102341.00;;;;10388400;28;20650;-76
2021/03/17 21:04:17;;;;;;;15.23;7.27;;;;;5.90;102336.00;;;;10395843;28;20199;-76
2021/03/17 21:09:25;;;;;;;10.83;3.90;;;;;5.90;102340.00;;;;10370284;28;20207;-76
2021/03/17 21:14:28;;;;;;;18.43;4.47;;;;;5.90;102350.00;;;;10378490;28;20260;-76
2021/03/17 21:19:30;;;;;;;23.43;5.63;;;;;5.90;102343.00;;;;10379896;28;20195;-74
2021/03/17 21:24:31;;;;;;;17.00;4.10;;;;;5.90;102345.00;;;;10372457;28;20211;-75
2021/03/17 21:29:33;;;;;;;12.97;4.37;;;;;5.90;102354.00;;;;10403398;28;20253;-77
2021/03/17 21:34:44;;;;;;;14.73;4.47;;;;;5.90;102351.00;;;;10396103;28;20583;-75
2021/03/17 21:40:30;;;;;;;13.93;4.17;;;;;5.90;102356.00;;;;10377935;28;20652;-75
2021/03/17 21:45:31;;;;;;;13.37;3.77;;;;;5.80;102359.00;;;;10397407;28;20772;-74
2021/03/17 21:50:51;;;;;;;15.47;4.23;;;;;5.80;102358.00;;;;10385269;28;20747;-75
2021/03/17 21:55:52;;;;;;;8.10;3.53;;;;;5.80;102352.00;;;;10408864;28;20190;-76
2021/03/17 22:00:55;;;;;;;8.67;3.67;;;;;5.70;102362.00;;;;10401941;28;20199;-76
2021/03/17 22:05:57;;;;;;;10.07;3.43;;;;;5.70;102361.00;;;;10403566;28;20218;-76
2021/03/17 22:11:00;;;;;;;9.80;3.83;;;;;5.70;102358.00;;;;10364938;28;20253;-76
2021/03/17 22:16:02;;;;;;;10.53;4.00;;;;;5.70;102362.00;;;;10415955;28;20640;-76
2021/03/17 22:21:07;;;;;;;10.73;4.30;;;;;5.60;102365.00;;;;10402271;28;20821;-75
2021/03/17 22:26:08;;;;;;;8.43;3.93;;;;;5.60;102348.00;;;;10392717;28;20708;-75
2021/03/17 22:31:10;;;;;;;9.73;4.40;;;;;5.60;102346.00;;;;10359115;28;20360;-76
2021/03/17 22:36:12;;;;;;;10.23;3.70;;;;;5.60;102345.00;;;;10377583;28;20258;-76
2021/03/17 22:41:14;;;;;;;11.50;4.07;;;;;5.60;102335.00;;;;10361060;28;20192;-76
2021/03/17 22:46:15;;;;;;;7.20;4.00;;;;;5.50;102340.00;;;;10352537;28;20216;-76
2021/03/17 22:51:17;;;;;;;7.70;3.13;;;;;5.50;102351.00;;;;10384863;28;20226;-76
2021/03/17 22:56:18;;;;;;;8.53;3.07;;;;;5.50;102345.00;;;;10366883;28;20230;-76
2021/03/17 23:01:19;;;;;;;8.37;3.27;;;;;5.50;102356.00;;;;10367820;28;20701;-76
2021/03/17 23:06:21;;;;;;;7.57;3.07;;;;;5.50;102352.00;;;;10368133;28;20215;-76
2021/03/17 23:11:39;;;;;;;8.57;3.17;;;;;5.50;102338.00;;;;10384416;28;20230;-76
2021/03/17 23:16:40;;;;;;;10.53;3.53;;;;;5.50;102335.00;;;;10400079;28;20302;-76
2021/03/17 23:21:43;;;;;;;8.70;4.13;;;;;5.50;102339.00;;;;10400469;28;20202;-76
2021/03/17 23:26:55;;;;;;;7.47;3.80;;;;;5.50;102332.00;;;;10383737;28;20207;-76
2021/03/17 23:31:56;;;;;;;14.13;3.63;;;;;5.50;102321.00;;;;10367536;28;20248;-76
2021/03/17 23:36:58;;;;;;;7.67;2.40;;;;;5.40;102310.00;;;;10383280;28;20202;-76
2021/03/17 23:42:04;;;;;;;10.37;2.80;;;;;5.40;102286.00;;;;10416977;28;20187;-76
2021/03/17 23:47:06;;;;;;;9.07;2.33;;;;;5.20;102291.00;;;;10398929;28;20676;-76
2021/03/17 23:52:08;;;;;;;12.37;3.03;;;;;5.00;102303.00;;;;10383495;28;20187;-76
2021/03/17 23:57:10;;;;;;;8.73;2.30;;;;;4.80;102288.00;;;;10398571;28;20195;-76
